Terminal Aerodrome Forecast
Issued by NWS Jackson, KY

Home | Current Version | Previous Version | Text Only | Print | Product List | Glossary On
Versions: 1 2 3 4 5 6 7 8 9 10 11 12 13 14 15 16 17 18
000
FTUS43 KJKL 252300
TAFLOZ
TAF
KLOZ 252340Z 2600/2624 16005KT P6SM BKN080
     FM260100 18005KT 6SM -RA BR BKN050 OVC100
     FM260400 22005KT 3SM RA OVC010
     FM261000 28008KT 2SM -RASN OVC008
     FM261300 30009G15KT 3SM -SHSN OVC004
     FM261900 30009G15KT P6SM VCSH OVC012=

USA.gov is the U.S. government's official web portal to all federal, state and local government web resources and services.